Newell, West Virginia
Current Conditions -  °F | °C
As of 8:51 PM on Monday 20 Oct 2014 (Local Time) from KPIT Reporting Station
Light Rain Light Rain  
Wind Chill: 53°   Ceiling: 4800
Heat Index: 53°   Visibility: 10mi
Dew Point: 44°   Wind: 7mph
Humidity: 71%   Direction: 200°SSW
Pressure: 29.88"   Gusts: NA
Location:  40.62°N, 80.61°W
Report Text: KPIT 210051Z 20006KT 10SM -RA FEW033 BKN048 OVC060 12/07 A2988 RMK AO2 RAB42 SLP129 P0000 T01170067
Loading
Personal Weather Stations






























Interactive Weather Map
Tropical Storm Tracking
New forecast layout! Learn more

10-Day Weather Forecast

Advertisements
Track Severe Weather on mobile